createdAt,value
2018-08-19T00:01:06.599Z,11.80
2018-08-19T00:03:37.028Z,9.53
2018-08-19T00:06:06.865Z,8.50
2018-08-19T00:08:36.538Z,8.20
2018-08-19T00:11:07.810Z,12.83
2018-08-19T00:13:57.934Z,9.60
2018-08-19T00:16:27.653Z,11.80
2018-08-19T00:18:57.301Z,10.33
2018-08-19T00:21:27.023Z,10.20
2018-08-19T00:23:56.702Z,11.20
2018-08-19T00:26:26.379Z,9.90
2018-08-19T00:28:56.054Z,11.10
2018-08-19T00:31:25.750Z,13.60
2018-08-19T00:33:55.420Z,10.90
2018-08-19T00:36:35.110Z,10.50
2018-08-19T00:39:07.977Z,12.00
2018-08-19T00:41:37.728Z,10.03
2018-08-19T00:44:07.535Z,10.87
2018-08-19T00:46:37.181Z,11.10
2018-08-19T00:49:06.922Z,10.23
2018-08-19T00:51:39.198Z,10.93
2018-08-19T00:54:08.865Z,9.77
2018-08-19T00:56:38.542Z,9.70
2018-08-19T00:59:10.958Z,10.10
2018-08-19T01:01:40.811Z,10.80
2018-08-19T01:04:11.107Z,11.20
2018-08-19T01:06:45.797Z,10.87
2018-08-19T01:09:15.573Z,9.87
2018-08-19T01:11:45.261Z,10.73
2018-08-19T01:14:15.909Z,11.23
2018-08-19T01:16:45.683Z,11.50
2018-08-19T01:19:16.849Z,11.07
2018-08-19T01:21:51.334Z,11.07
2018-08-19T01:24:21.233Z,13.10
2018-08-19T01:26:50.993Z,10.23
2018-08-19T01:29:37.377Z,11.47
2018-08-19T01:32:11.198Z,11.03
2018-08-19T01:34:44.285Z,11.37
2018-08-19T01:37:14.786Z,13.53
2018-08-19T01:39:44.426Z,12.13
2018-08-19T01:42:14.065Z,11.13
2018-08-19T01:44:43.719Z,12.73
2018-08-19T01:47:13.402Z,12.27
2018-08-19T01:49:43.081Z,10.23
2018-08-19T01:52:13.166Z,11.90
2018-08-19T01:54:42.798Z,10.10
2018-08-19T01:57:12.498Z,10.73
2018-08-19T01:59:42.177Z,12.53
2018-08-19T02:02:11.905Z,11.30
2018-08-19T02:04:56.794Z,12.93
2018-08-19T02:07:26.809Z,12.07
2018-08-19T02:10:03.853Z,11.67
2018-08-19T02:12:39.205Z,10.03
2018-08-19T02:15:10.370Z,11.17
2018-08-19T02:17:48.602Z,12.00
2018-08-19T02:20:18.372Z,12.67
2018-08-19T02:22:52.083Z,11.20
2018-08-19T02:25:21.845Z,12.23
2018-08-19T02:27:51.497Z,12.93
2018-08-19T02:30:21.135Z,11.10
2018-08-19T02:32:54.093Z,10.67
2018-08-19T02:35:23.814Z,12.50
2018-08-19T02:37:53.450Z,14.53
2018-08-19T02:40:28.265Z,12.70
2018-08-19T02:42:58.014Z,12.33
2018-08-19T02:45:27.699Z,10.90
2018-08-19T02:47:57.441Z,15.50
2018-08-19T02:50:27.210Z,12.67
2018-08-19T02:52:56.881Z,11.60
2018-08-19T02:55:26.549Z,11.90
2018-08-19T02:58:01.287Z,11.13
2018-08-19T03:00:30.957Z,12.23
2018-08-19T03:03:00.701Z,12.17
2018-08-19T03:05:30.454Z,13.90
2018-08-19T03:08:00.168Z,11.30
2018-08-19T03:10:29.890Z,10.40
2018-08-19T03:12:59.554Z,10.17
2018-08-19T03:15:29.283Z,11.53
2018-08-19T03:17:59.073Z,11.43
2018-08-19T03:20:29.414Z,12.00
2018-08-19T03:22:59.415Z,13.23
2018-08-19T03:25:29.449Z,10.53
2018-08-19T03:27:59.093Z,10.10
2018-08-19T03:30:28.743Z,13.47
2018-08-19T03:33:00.429Z,11.73
2018-08-19T03:35:30.176Z,12.47
2018-08-19T03:38:04.444Z,13.30
2018-08-19T03:40:34.021Z,11.43
2018-08-19T03:43:03.678Z,11.90
2018-08-19T03:45:33.373Z,12.53
2018-08-19T03:48:03.069Z,14.03
2018-08-19T03:50:35.546Z,12.40
2018-08-19T03:53:05.950Z,11.03
2018-08-19T03:55:38.515Z,12.10
2018-08-19T03:58:09.287Z,10.97
2018-08-19T04:00:43.759Z,12.13
2018-08-19T04:03:20.349Z,10.60
2018-08-19T04:05:56.697Z,10.77
2018-08-19T04:08:34.829Z,12.77
2018-08-19T04:11:08.012Z,11.00
2018-08-19T04:13:39.952Z,11.73
2018-08-19T04:16:11.146Z,11.93
2018-08-19T04:18:42.233Z,11.20
2018-08-19T04:21:13.024Z,10.73
2018-08-19T04:23:47.141Z,11.70
2018-08-19T04:26:16.766Z,10.27
2018-08-19T04:28:46.869Z,11.13
2018-08-19T04:31:21.490Z,10.07
2018-08-19T04:33:51.137Z,13.23
2018-08-19T04:36:22.786Z,11.70
2018-08-19T04:38:52.443Z,11.17
2018-08-19T04:41:22.262Z,12.70
2018-08-19T04:43:52.330Z,16.80
2018-08-19T04:46:22.073Z,14.67
2018-08-19T04:48:51.739Z,12.33
2018-08-19T04:51:21.444Z,11.27
2018-08-19T04:53:51.082Z,11.57
2018-08-19T04:56:20.743Z,12.93
2018-08-19T04:58:50.430Z,11.53
2018-08-19T05:01:20.141Z,10.63
2018-08-19T05:03:49.796Z,9.67
2018-08-19T05:06:19.448Z,13.30
2018-08-19T05:08:49.147Z,10.83
2018-08-19T05:11:19.323Z,10.67
2018-08-19T05:13:49.276Z,9.93
2018-08-19T05:16:19.074Z,12.97
2018-08-19T05:18:54.078Z,11.60
2018-08-19T05:21:27.354Z,11.57
2018-08-19T05:23:57.074Z,11.77
2018-08-19T05:26:26.751Z,11.70
2018-08-19T05:29:11.374Z,10.60
2018-08-19T05:31:46.510Z,12.03
2018-08-19T05:34:33.543Z,10.63
2018-08-19T05:37:03.810Z,14.50
2018-08-19T05:39:33.770Z,11.23
2018-08-19T05:42:11.494Z,12.43
2018-08-19T05:44:41.822Z,12.37
2018-08-19T05:47:15.483Z,12.37
2018-08-19T05:49:46.242Z,13.30
2018-08-19T05:52:18.747Z,12.20
2018-08-19T05:55:00.317Z,13.43
2018-08-19T05:57:32.410Z,13.20
2018-08-19T06:00:07.193Z,13.10
2018-08-19T06:02:42.792Z,13.20
2018-08-19T06:05:12.561Z,12.70
2018-08-19T06:07:42.358Z,12.10
2018-08-19T06:10:11.889Z,14.53
2018-08-19T06:12:41.542Z,12.63
2018-08-19T06:15:11.305Z,11.43
2018-08-19T06:17:40.994Z,12.23
2018-08-19T06:20:10.659Z,12.40
2018-08-19T06:22:40.978Z,13.37
2018-08-19T06:25:11.834Z,13.23
2018-08-19T06:27:43.973Z,15.03
2018-08-19T06:30:14.453Z,15.23
2018-08-19T06:32:44.241Z,14.27
2018-08-19T06:35:14.161Z,13.13
2018-08-19T06:37:43.954Z,16.60
2018-08-19T06:40:17.885Z,12.30
2018-08-19T06:42:47.621Z,13.70
2018-08-19T06:45:17.398Z,12.97
2018-08-19T06:47:47.142Z,13.67
2018-08-19T06:50:25.394Z,14.90
2018-08-19T06:52:56.063Z,13.10
2018-08-19T06:55:25.989Z,13.50
2018-08-19T06:57:58.332Z,11.30
2018-08-19T07:00:31.285Z,12.90
2018-08-19T07:03:03.861Z,12.37
2018-08-19T07:05:34.318Z,10.67
2018-08-19T07:08:04.093Z,15.70
2018-08-19T07:10:39.024Z,9.37
2018-08-19T07:13:12.743Z,9.63
2018-08-19T07:15:43.490Z,11.60
2018-08-19T07:18:14.890Z,11.80
2018-08-19T07:20:45.250Z,10.80
2018-08-19T07:23:14.992Z,10.37
2018-08-19T07:25:45.609Z,9.80
2018-08-19T07:28:16.990Z,11.70
2018-08-19T07:30:47.012Z,11.10
2018-08-19T07:33:17.122Z,10.03
2018-08-19T07:35:47.091Z,12.63
2018-08-19T07:38:17.479Z,10.27
2018-08-19T07:40:47.343Z,8.10
2018-08-19T07:43:17.444Z,8.13
2018-08-19T07:45:47.347Z,8.03
2018-08-19T07:48:17.302Z,7.13
2018-08-19T07:50:47.025Z,7.23
2018-08-19T07:53:16.739Z,7.00
2018-08-19T07:55:46.482Z,8.10
2018-08-19T07:58:31.235Z,6.80
2018-08-19T08:01:01.043Z,6.97
2018-08-19T08:03:30.920Z,8.90
2018-08-19T08:06:00.628Z,7.00
2018-08-19T08:08:30.391Z,7.80
2018-08-19T08:11:00.130Z,8.20
2018-08-19T08:13:29.737Z,6.77
2018-08-19T08:15:59.461Z,5.53
2018-08-19T08:18:29.258Z,7.03
2018-08-19T08:21:06.983Z,6.33
2018-08-19T08:23:36.598Z,6.70
2018-08-19T08:26:06.222Z,9.17
2018-08-19T08:28:38.584Z,6.50
2018-08-19T08:31:10.209Z,6.93
2018-08-19T08:33:42.785Z,6.43
2018-08-19T08:36:13.393Z,7.43
2018-08-19T08:38:44.545Z,7.40
2018-08-19T08:41:14.359Z,7.17
2018-08-19T08:43:44.055Z,7.80
2018-08-19T08:46:13.863Z,6.37
2018-08-19T08:48:43.992Z,5.87
2018-08-19T08:51:13.777Z,6.40
2018-08-19T08:53:45.494Z,6.57
2018-08-19T08:56:14.817Z,8.43
2018-08-19T08:58:44.542Z,6.70
2018-08-19T09:01:14.309Z,9.53
2018-08-19T09:03:44.114Z,7.40
2018-08-19T09:06:20.013Z,7.80
2018-08-19T09:08:50.035Z,9.97
2018-08-19T09:11:19.858Z,7.80
2018-08-19T09:13:49.631Z,9.73
2018-08-19T09:16:20.206Z,9.03
2018-08-19T09:18:50.214Z,9.40
2018-08-19T09:21:19.893Z,11.97
2018-08-19T09:23:49.868Z,9.57
2018-08-19T09:26:19.547Z,9.13
2018-08-19T09:28:49.193Z,10.83
2018-08-19T09:31:18.851Z,8.60
2018-08-19T09:33:48.584Z,9.13
2018-08-19T09:36:18.325Z,9.97
2018-08-19T09:38:48.110Z,9.73
2018-08-19T09:41:18.133Z,9.60
2018-08-19T09:43:48.178Z,9.97
2018-08-19T09:46:17.946Z,9.57
2018-08-19T09:48:47.981Z,9.60
2018-08-19T09:51:17.673Z,8.73
2018-08-19T09:53:48.761Z,9.67
2018-08-19T09:56:22.930Z,12.10
2018-08-19T09:58:57.802Z,11.43
2018-08-19T10:01:32.839Z,9.13
2018-08-19T10:04:07.599Z,10.17
2018-08-19T10:06:37.442Z,12.47
2018-08-19T10:09:09.405Z,8.77
2018-08-19T10:11:39.725Z,9.20
2018-08-19T10:14:09.557Z,7.93
2018-08-19T10:16:43.850Z,8.90
2018-08-19T10:19:14.348Z,10.07
2018-08-19T10:21:44.730Z,8.70
2018-08-19T10:24:26.948Z,9.97
2018-08-19T10:26:56.923Z,9.23
2018-08-19T10:29:26.698Z,9.93
2018-08-19T10:31:58.810Z,9.43
2018-08-19T10:34:32.142Z,9.77
2018-08-19T10:37:02.538Z,9.83
2018-08-19T10:39:32.197Z,9.57
2018-08-19T10:42:20.858Z,10.47
2018-08-19T10:44:51.671Z,11.57
2018-08-19T10:47:21.874Z,10.73
2018-08-19T10:49:59.874Z,11.53
2018-08-19T10:52:31.146Z,9.77
2018-08-19T10:55:01.988Z,10.80
2018-08-19T10:57:31.674Z,9.73
2018-08-19T11:00:01.363Z,10.00
2018-08-19T11:02:31.178Z,11.07
2018-08-19T11:05:01.274Z,10.53
2018-08-19T11:07:31.026Z,9.17
2018-08-19T11:10:20.966Z,11.57
2018-08-19T11:12:57.554Z,10.50
2018-08-19T11:15:47.596Z,10.57
2018-08-19T11:18:32.588Z,12.17
2018-08-19T11:21:18.959Z,10.87
2018-08-19T11:23:48.801Z,10.50
2018-08-19T11:26:18.478Z,10.40
2018-08-19T11:28:57.047Z,11.20
2018-08-19T11:31:31.604Z,10.07
2018-08-19T11:34:04.138Z,9.87
2018-08-19T11:36:39.281Z,10.17
2018-08-19T11:39:13.412Z,10.43
2018-08-19T11:41:43.906Z,10.53
2018-08-19T11:44:17.709Z,11.77
2018-08-19T11:46:47.685Z,9.80
2018-08-19T11:49:18.553Z,9.53
2018-08-19T11:51:56.911Z,10.13
2018-08-19T11:54:27.803Z,9.43
2018-08-19T11:57:04.554Z,9.40
2018-08-19T11:59:38.190Z,8.90
2018-08-19T12:02:18.842Z,7.37
2018-08-19T12:04:50.054Z,8.60
2018-08-19T12:07:20.250Z,9.03
2018-08-19T12:09:56.198Z,9.03
2018-08-19T12:12:44.308Z,8.93
2018-08-19T12:15:15.028Z,7.83
2018-08-19T12:17:45.217Z,8.20
2018-08-19T12:20:23.663Z,7.57
2018-08-19T12:22:53.336Z,9.07
2018-08-19T12:25:23.061Z,9.73
2018-08-19T12:27:53.091Z,7.63
2018-08-19T12:30:22.625Z,7.80
2018-08-19T12:32:56.866Z,7.13
2018-08-19T12:35:26.450Z,8.23
2018-08-19T12:37:56.131Z,7.97
2018-08-19T12:40:26.038Z,8.23
2018-08-19T12:42:55.921Z,9.00
2018-08-19T12:45:25.578Z,8.63
2018-08-19T12:47:55.345Z,7.47
2018-08-19T12:50:25.170Z,7.80
2018-08-19T12:52:54.833Z,7.90
2018-08-19T12:55:24.533Z,7.87
2018-08-19T12:57:59.373Z,7.60
2018-08-19T13:00:29.652Z,7.90
2018-08-19T13:02:59.466Z,6.80
2018-08-19T13:05:29.112Z,7.00
2018-08-19T13:07:59.315Z,8.30
2018-08-19T13:10:37.005Z,7.33
2018-08-19T13:13:06.746Z,7.13
2018-08-19T13:15:36.607Z,7.23
2018-08-19T13:18:06.411Z,6.80
2018-08-19T13:20:36.142Z,8.93
2018-08-19T13:23:07.101Z,7.63
2018-08-19T13:25:36.737Z,7.80
2018-08-19T13:28:06.463Z,6.83
2018-08-19T13:30:36.838Z,9.20
2018-08-19T13:33:06.621Z,13.23
2018-08-19T13:35:36.299Z,7.73
2018-08-19T13:38:06.187Z,7.40
2018-08-19T13:40:35.858Z,7.20
2018-08-19T13:43:05.997Z,7.77
2018-08-19T13:45:35.685Z,7.57
2018-08-19T13:48:05.434Z,6.80
2018-08-19T13:50:35.082Z,7.47
2018-08-19T13:53:04.996Z,7.73
2018-08-19T13:55:34.644Z,11.00
2018-08-19T13:58:04.428Z,7.50
2018-08-19T14:00:34.153Z,8.03
2018-08-19T14:03:03.840Z,8.87
2018-08-19T14:05:33.478Z,6.93
2018-08-19T14:08:03.147Z,8.00
2018-08-19T14:10:32.918Z,8.30
2018-08-19T14:13:02.570Z,8.10
2018-08-19T14:15:32.258Z,8.83
2018-08-19T14:18:01.970Z,9.07
2018-08-19T14:20:31.613Z,7.97
2018-08-19T14:23:01.279Z,8.13
2018-08-19T14:25:35.818Z,8.67
2018-08-19T14:28:05.832Z,7.53
2018-08-19T14:30:35.827Z,7.73
2018-08-19T14:33:05.523Z,7.33
2018-08-19T14:35:35.145Z,7.73
2018-08-19T14:38:04.870Z,8.63
2018-08-19T14:40:42.064Z,7.70
2018-08-19T14:43:11.846Z,8.60
2018-08-19T14:45:41.519Z,7.53
2018-08-19T14:48:11.238Z,7.70
2018-08-19T14:50:44.461Z,8.10
2018-08-19T14:53:14.807Z,8.40
2018-08-19T14:55:44.457Z,8.80
2018-08-19T14:58:14.706Z,8.70
2018-08-19T15:00:44.461Z,10.53
2018-08-19T15:03:14.103Z,7.63
2018-08-19T15:05:58.569Z,11.20
2018-08-19T15:08:29.423Z,8.50
2018-08-19T15:11:04.938Z,9.20
2018-08-19T15:13:36.634Z,7.57
2018-08-19T15:16:36.609Z,8.60
2018-08-19T15:19:06.461Z,8.70
2018-08-19T15:21:36.110Z,8.10
2018-08-19T15:24:06.019Z,7.50
2018-08-19T15:26:35.921Z,8.07
2018-08-19T15:29:05.695Z,9.73
2018-08-19T15:31:37.385Z,7.97
2018-08-19T15:34:07.135Z,19.17
2018-08-19T15:36:36.878Z,20.20
2018-08-19T15:39:08.897Z,13.40
2018-08-19T15:41:43.731Z,9.20
2018-08-19T15:44:15.004Z,8.93
2018-08-19T15:46:45.481Z,9.37
2018-08-19T15:49:15.195Z,9.10
2018-08-19T15:51:49.358Z,9.17
2018-08-19T15:54:36.817Z,9.07
2018-08-19T15:57:06.567Z,8.90
2018-08-19T15:59:37.901Z,9.17
2018-08-19T16:02:07.721Z,9.30
2018-08-19T16:04:37.529Z,9.30
2018-08-19T16:07:07.193Z,8.77
2018-08-19T16:09:36.936Z,9.07
2018-08-19T16:12:06.721Z,9.03
2018-08-19T16:14:36.766Z,9.33
2018-08-19T16:17:07.030Z,8.60
2018-08-19T16:19:47.823Z,9.17
2018-08-19T16:22:43.171Z,9.10
2018-08-19T16:25:13.039Z,11.13
2018-08-19T16:27:43.098Z,10.70
2018-08-19T16:30:12.982Z,9.90
2018-08-19T16:32:43.944Z,10.30
2018-08-19T16:35:24.401Z,9.13
2018-08-19T16:37:54.083Z,10.37
2018-08-19T16:40:23.817Z,10.07
2018-08-19T16:42:53.707Z,11.37
2018-08-19T16:45:23.658Z,9.83
2018-08-19T16:47:53.535Z,11.40
2018-08-19T16:50:23.472Z,11.40
2018-08-19T16:52:53.405Z,11.37
2018-08-19T16:55:23.229Z,11.87
2018-08-19T16:57:53.194Z,11.30
2018-08-19T17:00:22.873Z,12.57
2018-08-19T17:02:53.111Z,11.50
2018-08-19T17:05:32.499Z,12.00
2018-08-19T17:08:02.319Z,13.63
2018-08-19T17:10:32.286Z,10.77
2018-08-19T17:13:02.142Z,11.20
2018-08-19T17:15:32.107Z,11.33
2018-08-19T17:18:01.860Z,13.87
2018-08-19T17:20:31.779Z,10.67
2018-08-19T17:23:01.623Z,12.50
2018-08-19T17:25:32.170Z,12.80
2018-08-19T17:28:10.412Z,12.47
2018-08-19T17:30:40.498Z,11.87
2018-08-19T17:33:10.609Z,10.97
2018-08-19T17:35:43.242Z,10.43
2018-08-19T17:38:13.234Z,10.77
2018-08-19T17:40:43.125Z,11.00
2018-08-19T17:43:13.520Z,11.17
2018-08-19T17:45:43.585Z,10.70
2018-08-19T17:48:13.259Z,12.60
2018-08-19T17:50:43.224Z,11.27
2018-08-19T17:53:13.071Z,13.40
2018-08-19T17:55:46.306Z,11.23
2018-08-19T17:58:16.164Z,12.03
2018-08-19T18:00:46.282Z,11.83
2018-08-19T18:03:16.350Z,17.60
2018-08-19T18:05:46.395Z,11.27
2018-08-19T18:08:16.471Z,12.23
2018-08-19T18:10:52.616Z,11.67
2018-08-19T18:13:22.566Z,13.53
2018-08-19T18:15:52.423Z,12.90
2018-08-19T18:18:23.197Z,11.73
2018-08-19T18:20:53.060Z,11.80
2018-08-19T18:23:26.880Z,11.90
2018-08-19T18:25:56.840Z,12.03
2018-08-19T18:28:31.060Z,11.90
2018-08-19T18:31:08.786Z,13.60
2018-08-19T18:33:52.023Z,11.73
2018-08-19T18:36:23.229Z,12.70
2018-08-19T18:38:52.985Z,12.27
2018-08-19T18:41:33.779Z,12.20
2018-08-19T18:44:05.151Z,12.73
2018-08-19T18:46:35.352Z,11.80
2018-08-19T18:49:12.569Z,36.90
2018-08-19T18:51:47.094Z,30.23
2018-08-19T18:54:25.027Z,44.00
2018-08-19T18:56:54.843Z,13.90
2018-08-19T18:59:24.957Z,12.93
2018-08-19T19:01:59.427Z,12.97
2018-08-19T19:04:29.308Z,11.83
2018-08-19T19:06:59.156Z,12.50
2018-08-19T19:09:39.591Z,12.40
2018-08-19T19:12:09.231Z,13.47
2018-08-19T19:14:40.550Z,13.40
2018-08-19T19:17:10.198Z,13.13
2018-08-19T19:19:43.941Z,12.47
2018-08-19T19:22:13.682Z,12.03
2018-08-19T19:24:43.358Z,13.13
2018-08-19T19:27:13.073Z,13.80
2018-08-19T19:29:45.214Z,14.10
2018-08-19T19:32:24.780Z,13.70
2018-08-19T19:34:54.474Z,14.43
2018-08-19T19:37:24.179Z,12.90
2018-08-19T19:40:00.901Z,13.47
2018-08-19T19:42:30.585Z,16.37
2018-08-19T19:45:00.610Z,13.07
2018-08-19T19:47:30.425Z,17.10
2018-08-19T19:50:00.657Z,13.03
2018-08-19T19:52:30.459Z,19.43
2018-08-19T19:55:00.378Z,13.50
2018-08-19T19:57:30.305Z,13.10
2018-08-19T20:00:00.176Z,13.87
2018-08-19T20:02:30.891Z,13.57
2018-08-19T20:05:01.356Z,15.33
2018-08-19T20:07:31.223Z,15.47
2018-08-19T20:10:00.966Z,15.53
2018-08-19T20:12:30.746Z,15.10
2018-08-19T20:15:01.687Z,15.83
2018-08-19T20:17:31.386Z,16.57
2018-08-19T20:20:01.132Z,15.17
2018-08-19T20:22:30.786Z,15.03
2018-08-19T20:25:00.426Z,15.90
2018-08-19T20:27:30.212Z,14.27
2018-08-19T20:29:59.938Z,14.13
2018-08-19T20:32:29.661Z,14.73
2018-08-19T20:35:00.134Z,14.83
2018-08-19T20:37:33.094Z,14.03
2018-08-19T20:40:03.162Z,14.50
2018-08-19T20:42:33.144Z,14.53
2018-08-19T20:45:03.330Z,13.73
2018-08-19T20:47:33.535Z,14.80
2018-08-19T20:50:03.437Z,14.20
2018-08-19T20:52:47.262Z,14.40
2018-08-19T20:55:17.088Z,14.40
2018-08-19T20:57:46.823Z,14.83
2018-08-19T21:00:17.273Z,20.07
2018-08-19T21:02:46.940Z,21.70
2018-08-19T21:05:16.614Z,17.50
2018-08-19T21:07:47.007Z,17.00
2018-08-19T21:10:16.718Z,17.57
2018-08-19T21:12:46.467Z,18.43
2018-08-19T21:15:22.845Z,16.13
2018-08-19T21:17:52.908Z,18.77
2018-08-19T21:20:22.634Z,21.47
2018-08-19T21:22:53.714Z,17.37
2018-08-19T21:25:23.401Z,14.30
2018-08-19T21:27:53.180Z,18.37
2018-08-19T21:30:22.918Z,15.27
2018-08-19T21:32:53.058Z,27.70
2018-08-19T21:35:22.910Z,15.60
2018-08-19T21:37:52.570Z,16.47
2018-08-19T21:40:39.072Z,19.50
2018-08-19T21:43:09.361Z,15.67
2018-08-19T21:45:39.730Z,13.33
2018-08-19T21:48:15.043Z,18.57
2018-08-19T21:50:44.727Z,14.60
2018-08-19T21:53:16.495Z,16.00
2018-08-19T21:55:47.534Z,14.93
2018-08-19T21:58:17.273Z,14.27
2018-08-19T22:00:59.522Z,14.77
2018-08-19T22:03:59.609Z,16.93
2018-08-19T22:06:29.270Z,17.80
2018-08-19T22:08:58.939Z,15.43
2018-08-19T22:11:28.682Z,14.13
2018-08-19T22:14:11.289Z,14.70
2018-08-19T22:16:40.937Z,15.70
2018-08-19T22:19:10.571Z,14.80
2018-08-19T22:21:40.214Z,14.73
2018-08-19T22:24:09.858Z,15.20
2018-08-19T22:26:39.461Z,14.80
2018-08-19T22:29:16.349Z,15.87
2018-08-19T22:31:46.057Z,14.03
2018-08-19T22:34:15.715Z,15.17
2018-08-19T22:36:45.434Z,15.43
2018-08-19T22:39:34.422Z,16.37
2018-08-19T22:42:04.067Z,14.80
2018-08-19T22:44:33.689Z,16.80
2018-08-19T22:47:03.402Z,17.17
2018-08-19T22:49:33.022Z,15.07
2018-08-19T22:52:23.626Z,14.33
2018-08-19T22:54:56.727Z,16.20
2018-08-19T22:57:27.175Z,14.97
2018-08-19T22:59:56.849Z,15.80
2018-08-19T23:02:26.623Z,14.87
2018-08-19T23:04:56.309Z,14.83
2018-08-19T23:07:25.991Z,17.20
2018-08-19T23:09:55.841Z,15.67
2018-08-19T23:12:25.504Z,15.30
2018-08-19T23:15:59.473Z,15.53
2018-08-19T23:18:29.900Z,15.27
2018-08-19T23:21:00.365Z,15.93
2018-08-19T23:23:30.406Z,15.23
2018-08-19T23:26:00.051Z,15.10
2018-08-19T23:28:29.739Z,15.70
2018-08-19T23:30:59.454Z,16.57
2018-08-19T23:33:29.101Z,15.70
2018-08-19T23:35:58.777Z,14.20
2018-08-19T23:38:28.419Z,14.60
2018-08-19T23:40:58.066Z,15.00
2018-08-19T23:43:27.714Z,14.07
2018-08-19T23:45:57.438Z,14.27
2018-08-19T23:48:27.118Z,15.07
2018-08-19T23:50:56.745Z,16.00
2018-08-19T23:53:26.373Z,16.07
2018-08-19T23:55:56.058Z,16.30
2018-08-19T23:58:25.697Z,14.97
